Wetterdaten: Woche 02.04.07 - 08.04.07 (KW14)
Datum Zeit Temperatur Luftfeuchte Luftdruck Niederschlag Windrichtung Wind
02.04.2007 00:00 7,1 C 65 % 1025 hPa 0,0 l/m - - 0,0 km/h (0 Bft)
02.04.2007 01:00 6,1 C 69 % 1025 hPa 0,0 l/m - - 0,0 km/h (0 Bft)
02.04.2007 02:00 5,0 C 74 % 1025 hPa 0,0 l/m - - 0,0 km/h (0 Bft)
02.04.2007 03:00 4,1 C 80 % 1025 hPa 0,0 l/m - - 0,0 km/h (0 Bft)
02.04.2007 04:00 3,5 C 85 % 1025 hPa 0,0 l/m - - 0,0 km/h (0 Bft)
02.04.2007 05:00 3,1 C 88 % 1025 hPa 0,0 l/m - - 0,0 km/h (0 Bft)
02.04.2007 06:00 2,8 C 92 % 1025 hPa 0,0 l/m - - 0,0 km/h (0 Bft)
02.04.2007 07:00 2,7 C 94 % 1025 hPa 0,0 l/m - - 0,0 km/h (0 Bft)
02.04.2007 08:00 4,2 C 96 % 1025 hPa 0,0 l/m - - 0,0 km/h (0 Bft)
02.04.2007 09:00 7,2 C 86 % 1025 hPa 0,0 l/m - - 0,0 km/h (0 Bft)
02.04.2007 10:00 10,3 C 63 % 1025 hPa 0,0 l/m - - 0,0 km/h (0 Bft)
02.04.2007 11:00 13,2 C 51 % 1025 hPa 0,0 l/m - - 0,0 km/h (0 Bft)
02.04.2007 12:00 14,2 C 45 % 1025 hPa 0,0 l/m - - 0,0 km/h (0 Bft)
02.04.2007 13:00 15,2 C 43 % 1024 hPa 0,0 l/m - - 0,0 km/h (0 Bft)
02.04.2007 14:00 16,8 C 37 % 1023 hPa 0,0 l/m - - 0,0 km/h (0 Bft)
02.04.2007 15:00 17,2 C 34 % 1023 hPa 0,0 l/m - - 0,0 km/h (0 Bft)
02.04.2007 16:00 16,6 C 33 % 1022 hPa 0,0 l/m - - 0,0 km/h (0 Bft)
02.04.2007 17:00 16,5 C 31 % 1021 hPa 0,0 l/m - - 0,0 km/h (0 Bft)
02.04.2007 18:00 16,2 C 31 % 1021 hPa 0,0 l/m - - 0,0 km/h (0 Bft)
02.04.2007 19:00 14,6 C 35 % 1020 hPa 0,0 l/m - - 0,0 km/h (0 Bft)
02.04.2007 20:00 12,4 C 42 % 1020 hPa 0,0 l/m - - 0,0 km/h (0 Bft)
02.04.2007 21:00 10,1 C 50 % 1020 hPa 0,0 l/m - - 0,0 km/h (0 Bft)
02.04.2007 22:00 8,6 C 56 % 1020 hPa 0,0 l/m - - 0,0 km/h (0 Bft)
02.04.2007 23:00 7,6 C 61 % 1020 hPa 0,0 l/m - - 0,0 km/h (0 Bft)
03.04.2007 00:00 6,8 C 67 % 1019 hPa 0,0 l/m - - 0,0 km/h (0 Bft)
03.04.2007 01:00 6,2 C 69 % 1019 hPa 0,0 l/m - - 0,0 km/h (0 Bft)
03.04.2007 02:00 5,3 C 71 % 1018 hPa 0,0 l/m - - 0,0 km/h (0 Bft)
03.04.2007 03:00 4,6 C 74 % 1018 hPa 0,0 l/m - - 0,0 km/h (0 Bft)
03.04.2007 04:00 4,3 C 76 % 1017 hPa 0,0 l/m - - 0,0 km/h (0 Bft)
03.04.2007 05:00 3,9 C 77 % 1017 hPa 0,0 l/m - - 0,0 km/h (0 Bft)
03.04.2007 06:00 3,3 C 79 % 1016 hPa 0,0 l/m - - 0,0 km/h (0 Bft)
03.04.2007 07:00 3,2 C 82 % 1016 hPa 0,0 l/m - - 0,0 km/h (0 Bft)
03.04.2007 08:00 4,2 C 84 % 1016 hPa 0,0 l/m - - 0,0 km/h (0 Bft)
03.04.2007 09:00 6,1 C 77 % 1016 hPa 0,0 l/m - - 0,0 km/h (0 Bft)
03.04.2007 10:00 10,3 C 57 % 1015 hPa 0,0 l/m - - 0,0 km/h (0 Bft)
03.04.2007 11:00 13,8 C 43 % 1015 hPa 0,0 l/m - - 0,0 km/h (0 Bft)
03.04.2007 12:00 15,0 C 36 % 1014 hPa 0,0 l/m - - 0,0 km/h (0 Bft)
03.04.2007 13:00 15,3 C 35 % 1013 hPa 0,0 l/m - - 0,0 km/h (0 Bft)
03.04.2007 14:00 13,0 C 42 % 1013 hPa 0,0 l/m - - 0,0 km/h (0 Bft)
03.04.2007 15:00 13,1 C 45 % 1012 hPa 0,0 l/m - - 0,0 km/h (0 Bft)
03.04.2007 16:00 13,2 C 44 % 1011 hPa 0,0 l/m - - 0,0 km/h (0 Bft)
03.04.2007 17:00 10,0 C 61 % 1011 hPa 0,0 l/m - - 0,0 km/h (0 Bft)
03.04.2007 18:00 9,1 C 72 % 1010 hPa 0,0 l/m - - 0,0 km/h (0 Bft)
03.04.2007 19:00 8,9 C 75 % 1010 hPa 0,0 l/m - - 0,0 km/h (0 Bft)
03.04.2007 20:00 8,1 C 74 % 1010 hPa 0,0 l/m - - 0,0 km/h (0 Bft)
03.04.2007 21:00 7,1 C 81 % 1010 hPa 3,0 l/m - - 0,0 km/h (0 Bft)
03.04.2007 22:00 6,0 C 86 % 1010 hPa 4,0 l/m - - 0,0 km/h (0 Bft)
03.04.2007 23:00 4,9 C 86 % 1010 hPa 0,0 l/m - - 0,0 km/h (0 Bft)
04.04.2007 00:00 3,6 C 88 % 1010 hPa 2,0 l/m - - 0,0 km/h (0 Bft)
04.04.2007 01:00 3,1 C 91 % 1010 hPa 2,0 l/m - - 0,0 km/h (0 Bft)
04.04.2007 02:00 3,0 C 93 % 1010 hPa 1,0 l/m - - 0,0 km/h (0 Bft)
04.04.2007 03:00 3,3 C 95 % 1010 hPa 2,0 l/m - - 0,0 km/h (0 Bft)
04.04.2007 04:00 3,3 C 95 % 1010 hPa 1,0 l/m - - 0,0 km/h (0 Bft)
04.04.2007 05:00 3,1 C 96 % 1010 hPa 0,0 l/m - - 0,0 km/h (0 Bft)
04.04.2007 06:00 2,7 C 96 % 1010 hPa 0,0 l/m - - 0,0 km/h (0 Bft)
04.04.2007 07:00 2,8 C 98 % 1011 hPa 1,0 l/m - - 0,0 km/h (0 Bft)
04.04.2007 08:00 3,1 C 96 % 1011 hPa 0,0 l/m - - 0,0 km/h (0 Bft)
04.04.2007 09:00 2,8 C 96 % 1012 hPa 0,0 l/m - - 0,0 km/h (0 Bft)
04.04.2007 10:00 2,8 C 97 % 1013 hPa 0,0 l/m - - 0,0 km/h (0 Bft)
04.04.2007 11:00 2,9 C 98 % 1013 hPa 0,0 l/m - - 0,0 km/h (0 Bft)
04.04.2007 12:00 3,2 C 98 % 1014 hPa 0,0 l/m - - 0,0 km/h (0 Bft)
04.04.2007 13:00 3,6 C 97 % 1014 hPa 0,0 l/m - - 0,0 km/h (0 Bft)
04.04.2007 14:00 4,1 C 95 % 1014 hPa 0,0 l/m - - 0,0 km/h (0 Bft)
04.04.2007 15:00 4,6 C 90 % 1014 hPa 0,0 l/m - - 0,0 km/h (0 Bft)
04.04.2007 16:00 5,2 C 85 % 1015 hPa 0,0 l/m - - 0,0 km/h (0 Bft)
04.04.2007 17:00 5,6 C 81 % 1015 hPa 0,0 l/m - - 0,0 km/h (0 Bft)
04.04.2007 18:00 5,9 C 78 % 1015 hPa 0,0 l/m - - 0,0 km/h (0 Bft)
04.04.2007 19:00 5,8 C 78 % 1016 hPa 0,0 l/m - - 0,0 km/h (0 Bft)
04.04.2007 20:00 5,6 C 78 % 1016 hPa 0,0 l/m - - 0,0 km/h (0 Bft)
04.04.2007 21:00 5,5 C 75 % 1017 hPa 0,0 l/m - - 0,0 km/h (0 Bft)
04.04.2007 22:00 5,4 C 73 % 1018 hPa 0,0 l/m - - 0,0 km/h (0 Bft)
04.04.2007 23:00 5,1 C 72 % 1018 hPa 0,0 l/m - - 0,0 km/h (0 Bft)
05.04.2007 00:00 4,6 C 74 % 1018 hPa 0,0 l/m - - 0,0 km/h (0 Bft)
05.04.2007 01:00 3,8 C 75 % 1018 hPa 0,0 l/m - - 0,0 km/h (0 Bft)
05.04.2007 02:00 2,9 C 78 % 1018 hPa 0,0 l/m - - 0,0 km/h (0 Bft)
05.04.2007 03:00 1,8 C 82 % 1018 hPa 0,0 l/m - - 0,0 km/h (0 Bft)
05.04.2007 04:00 0,8 C 86 % 1018 hPa 0,0 l/m - - 0,0 km/h (0 Bft)
05.04.2007 05:00 0,6 C 90 % 1018 hPa 0,0 l/m - - 0,0 km/h (0 Bft)
05.04.2007 06:00 0,4 C 90 % 1018 hPa 0,0 l/m - - 0,0 km/h (0 Bft)
05.04.2007 07:00 0,3 C 91 % 1019 hPa 0,0 l/m - - 0,0 km/h (0 Bft)
05.04.2007 08:00 1,3 C 88 % 1019 hPa 0,0 l/m - - 0,0 km/h (0 Bft)
05.04.2007 09:00 3,1 C 75 % 1020 hPa 0,0 l/m - - 0,0 km/h (0 Bft)
05.04.2007 10:00 5,4 C 62 % 1020 hPa 0,0 l/m - - 0,0 km/h (0 Bft)
05.04.2007 11:00 7,7 C 49 % 1020 hPa 0,0 l/m - - 0,0 km/h (0 Bft)
05.04.2007 12:00 8,9 C 47 % 1020 hPa 0,0 l/m - - 0,0 km/h (0 Bft)
05.04.2007 13:00 10,6 C 40 % 1020 hPa 0,0 l/m - - 0,0 km/h (0 Bft)
05.04.2007 14:00 12,1 C 37 % 1020 hPa 0,0 l/m - - 0,0 km/h (0 Bft)
05.04.2007 15:00 12,9 C 36 % 1019 hPa 0,0 l/m - - 0,0 km/h (0 Bft)
05.04.2007 16:00 13,1 C 34 % 1019 hPa 0,0 l/m - - 0,0 km/h (0 Bft)
05.04.2007 17:00 13,1 C 32 % 1019 hPa 0,0 l/m - - 0,0 km/h (0 Bft)
05.04.2007 18:00 12,9 C 33 % 1019 hPa 0,0 l/m - - 0,0 km/h (0 Bft)
05.04.2007 19:00 11,6 C 37 % 1019 hPa 0,0 l/m - - 0,0 km/h (0 Bft)
05.04.2007 20:00 9,0 C 45 % 1019 hPa 0,0 l/m - - 0,0 km/h (0 Bft)
05.04.2007 21:00 6,8 C 52 % 1020 hPa 0,0 l/m - - 0,0 km/h (0 Bft)
05.04.2007 22:00 5,7 C 57 % 1020 hPa 0,0 l/m - - 0,0 km/h (0 Bft)
05.04.2007 23:00 5,2 C 57 % 1021 hPa 0,0 l/m - - 0,0 km/h (0 Bft)
06.04.2007 00:00 4,1 C 60 % 1021 hPa 0,0 l/m - - 0,0 km/h (0 Bft)
06.04.2007 01:00 2,9 C 66 % 1021 hPa 0,0 l/m - - 0,0 km/h (0 Bft)
06.04.2007 02:00 2,0 C 71 % 1021 hPa 0,0 l/m - - 0,0 km/h (0 Bft)
06.04.2007 03:00 1,7 C 73 % 1021 hPa 0,0 l/m - - 0,0 km/h (0 Bft)
06.04.2007 04:00 1,3 C 74 % 1021 hPa 0,0 l/m - - 0,0 km/h (0 Bft)
06.04.2007 05:00 1,0 C 76 % 1021 hPa 0,0 l/m - - 0,0 km/h (0 Bft)
06.04.2007 06:00 1,0 C 77 % 1021 hPa 0,0 l/m - - 0,0 km/h (0 Bft)
06.04.2007 07:00 1,4 C 76 % 1022 hPa 0,0 l/m - - 0,0 km/h (0 Bft)
06.04.2007 08:00 4,0 C 72 % 1022 hPa 0,0 l/m - - 0,0 km/h (0 Bft)
06.04.2007 09:00 7,6 C 61 % 1022 hPa 0,0 l/m - - 0,0 km/h (0 Bft)
06.04.2007 10:00 10,3 C 51 % 1022 hPa 0,0 l/m - - 0,0 km/h (0 Bft)
06.04.2007 11:00 12,5 C 45 % 1022 hPa 0,0 l/m - - 0,0 km/h (0 Bft)
06.04.2007 12:00 13,9 C 41 % 1022 hPa 0,0 l/m - - 0,0 km/h (0 Bft)
06.04.2007 13:00 15,2 C 38 % 1022 hPa 0,0 l/m - - 0,0 km/h (0 Bft)
06.04.2007 14:00 16,5 C 36 % 1021 hPa 0,0 l/m - - 0,0 km/h (0 Bft)
06.04.2007 15:00 17,2 C 34 % 1021 hPa 0,0 l/m - - 0,0 km/h (0 Bft)
06.04.2007 16:00 17,4 C 33 % 1021 hPa 0,0 l/m - - 0,0 km/h (0 Bft)
06.04.2007 17:00 17,3 C 32 % 1021 hPa 0,0 l/m - - 0,0 km/h (0 Bft)
06.04.2007 18:00 16,9 C 33 % 1021 hPa 0,0 l/m - - 0,0 km/h (0 Bft)
06.04.2007 19:00 15,5 C 35 % 1021 hPa 0,0 l/m - - 0,0 km/h (0 Bft)
06.04.2007 20:00 13,5 C 40 % 1021 hPa 0,0 l/m - - 0,0 km/h (0 Bft)
06.04.2007 21:00 10,7 C 49 % 1022 hPa 0,0 l/m - - 0,0 km/h (0 Bft)
06.04.2007 22:00 9,1 C 55 % 1022 hPa 0,0 l/m - - 0,0 km/h (0 Bft)
06.04.2007 23:00 7,9 C 62 % 1022 hPa 0,0 l/m - - 0,0 km/h (0 Bft)
07.04.2007 00:00 7,2 C 65 % 1022 hPa 0,0 l/m - - 0,0 km/h (0 Bft)
07.04.2007 01:00 6,3 C 68 % 1022 hPa 0,0 l/m - - 0,0 km/h (0 Bft)
07.04.2007 02:00 5,1 C 73 % 1021 hPa 0,0 l/m - - 0,0 km/h (0 Bft)
07.04.2007 03:00 4,2 C 76 % 1021 hPa 0,0 l/m - - 0,0 km/h (0 Bft)
07.04.2007 04:00 3,3 C 79 % 1021 hPa 0,0 l/m - - 0,0 km/h (0 Bft)
07.04.2007 05:00 2,6 C 84 % 1021 hPa 0,0 l/m - - 0,0 km/h (0 Bft)
07.04.2007 06:00 2,0 C 87 % 1021 hPa 0,0 l/m - - 0,0 km/h (0 Bft)
07.04.2007 07:00 2,0 C 89 % 1021 hPa 0,0 l/m - - 0,0 km/h (0 Bft)
07.04.2007 08:00 4,8 C 85 % 1022 hPa 0,0 l/m - - 0,0 km/h (0 Bft)
07.04.2007 09:00 8,3 C 74 % 1022 hPa 0,0 l/m - - 0,0 km/h (0 Bft)
07.04.2007 10:00 12,3 C 57 % 1021 hPa 0,0 l/m - - 0,0 km/h (0 Bft)
07.04.2007 11:00 15,3 C 47 % 1021 hPa 0,0 l/m - - 0,0 km/h (0 Bft)
07.04.2007 12:00 17,0 C 37 % 1021 hPa 0,0 l/m - - 0,0 km/h (0 Bft)
07.04.2007 13:00 17,2 C 34 % 1021 hPa 0,0 l/m - - 0,0 km/h (0 Bft)
07.04.2007 14:00 18,4 C 32 % 1020 hPa 0,0 l/m - - 0,0 km/h (0 Bft)
07.04.2007 15:00 19,0 C 30 % 1020 hPa 0,0 l/m - - 0,0 km/h (0 Bft)
07.04.2007 16:00 18,2 C 33 % 1020 hPa 0,0 l/m - - 0,0 km/h (0 Bft)
07.04.2007 17:00 17,5 C 34 % 1020 hPa 0,0 l/m - - 0,0 km/h (0 Bft)
07.04.2007 18:00 16,1 C 37 % 1020 hPa 0,0 l/m - - 0,0 km/h (0 Bft)
07.04.2007 19:00 14,7 C 42 % 1020 hPa 0,0 l/m - - 0,0 km/h (0 Bft)
07.04.2007 20:00 13,2 C 48 % 1021 hPa 0,0 l/m - - 0,0 km/h (0 Bft)
07.04.2007 21:00 12,1 C 57 % 1022 hPa 0,0 l/m - - 0,0 km/h (0 Bft)
07.04.2007 22:00 10,7 C 62 % 1023 hPa 0,0 l/m - - 0,0 km/h (0 Bft)
07.04.2007 23:00 9,4 C 66 % 1023 hPa 0,0 l/m - - 0,0 km/h (0 Bft)
08.04.2007 00:00 8,6 C 69 % 1023 hPa 0,0 l/m - - 0,0 km/h (0 Bft)
08.04.2007 01:00 7,9 C 69 % 1023 hPa 0,0 l/m - - 0,0 km/h (0 Bft)
08.04.2007 02:00 7,3 C 69 % 1023 hPa 0,0 l/m - - 0,0 km/h (0 Bft)
08.04.2007 03:00 6,9 C 69 % 1023 hPa 0,0 l/m - - 0,0 km/h (0 Bft)
08.04.2007 04:00 6,5 C 68 % 1023 hPa 0,0 l/m - - 0,0 km/h (0 Bft)
08.04.2007 05:00 6,1 C 68 % 1023 hPa 0,0 l/m - - 0,0 km/h (0 Bft)
08.04.2007 06:00 5,5 C 71 % 1023 hPa 0,0 l/m - - 0,0 km/h (0 Bft)
08.04.2007 07:00 5,1 C 71 % 1024 hPa 0,0 l/m - - 0,0 km/h (0 Bft)
08.04.2007 08:00 5,5 C 65 % 1024 hPa 0,0 l/m - - 0,0 km/h (0 Bft)
08.04.2007 09:00 6,4 C 58 % 1024 hPa 0,0 l/m - - 0,0 km/h (0 Bft)
08.04.2007 10:00 7,7 C 53 % 1025 hPa 0,0 l/m - - 0,0 km/h (0 Bft)
08.04.2007 11:00 9,5 C 49 % 1024 hPa 0,0 l/m - - 0,0 km/h (0 Bft)
08.04.2007 12:00 11,1 C 46 % 1024 hPa 0,0 l/m - - 0,0 km/h (0 Bft)
08.04.2007 13:00 12,3 C 41 % 1024 hPa 0,0 l/m - - 0,0 km/h (0 Bft)
08.04.2007 14:00 13,4 C 39 % 1024 hPa 0,0 l/m - - 0,0 km/h (0 Bft)
08.04.2007 15:00 14,0 C 38 % 1023 hPa 0,0 l/m - - 0,0 km/h (0 Bft)
08.04.2007 16:00 14,1 C 37 % 1023 hPa 0,0 l/m - - 0,0 km/h (0 Bft)
08.04.2007 17:00 14,1 C 37 % 1022 hPa 0,0 l/m - - 0,0 km/h (0 Bft)
08.04.2007 18:00 13,9 C 37 % 1022 hPa 0,0 l/m - - 0,0 km/h (0 Bft)
08.04.2007 19:00 12,8 C 39 % 1022 hPa 0,0 l/m - - 0,0 km/h (0 Bft)
08.04.2007 20:00 10,5 C 46 % 1022 hPa 0,0 l/m - - 0,0 km/h (0 Bft)
08.04.2007 21:00 8,2 C 55 % 1022 hPa 0,0 l/m - - 0,0 km/h (0 Bft)
08.04.2007 22:00 6,7 C 61 % 1022 hPa 0,0 l/m - - 0,0 km/h (0 Bft)
08.04.2007 23:00 5,5 C 67 % 1022 hPa 0,0 l/m - - 0,0 km/h (0 Bft)
Min-Datum _ 05.04.07 07.04.07 03.04.07 - - 02.04.07
_ Min-Zeit 07:02 15:05 18:51 - - 00:00
Minimum _ 0,2 C 29 % 1009 hPa - - 0,0 km/h (0 Bft)
Max-Datum _ 07.04.07 04.04.07 02.04.07 03.04.07 - 02.04.07
_ Max-Zeit 15:23 07:19 00:00 22:07 - 00:00
Maximum _ 19,2 C 98 % 1025 hPa 4,0 l/m - 0,0 km/h
- - (0 Bft)
Durchschnitt _ 8,2 C 63 % 1020 hPa #16,0 l/m - - 0,0 km/h (0 Bft)

Durchschnitt Minimum Temp.7,7 C
Durchschnitt Maximum Temp.8,7 C